Airfield :
LOGIN :

Register | Disclaimer

   EN    FR    IT 

 










Legend :    VFR   Marginal VFR   IFR   Intensive IFR   Very Intensive IFR
Visi :
Ceiling :
>= 8 km
>= 3000ft
5 to 8 km
1000 to 3000 ft
1500m to 5 km
500 to 1000 ft
800 to 1500m
200 to 500 ft
< 800m
< 200 ft
Symbols :   Thunderstorms  Fog  Heavy snow  Heavy precipitations  Wind > 20 kt
SIGMETs :     Misc.  Thunderstorms  Icing  Turbulence  Mountain Waves  Volcanic Ashes






- Airport Elevation : 83 ft
- IATA code : LHR


EGLL - London Heathrow

CURRENT METAR :
  • 200250Z AUTO 23012KT 9999 SCT020 SCT025 OVC040 09/07 Q1012 NOSIG

EXPIRED METARs :
  • 200220Z AUTO 22012KT 9999 BKN038 OVC044 09/07 Q1012
  • 200150Z AUTO 23013KT 9999 SCT012/// SCT020/// BKN030/// 09/07 Q1012 NOSIG
  • 200120Z AUTO 22010KT 9999 SCT014/// BKN019/// BKN026/// 09/07 Q1013
  • 200050Z AUTO 22012KT 9999 FEW014/// SCT021/// OVC037/// 09/07 Q1013

TAF AMD TAF EGLL
Valid from the 20 at 00:00 until the 21 at 06:00 UTC


200009Z 2000/2106 22012KT 9999 FEW018 BKN035
TEMPO 2000/2010 4000 RADZ BKN014
PROB30
TEMPO 2000/2006 21015G25KT
BECMG 2006/2009 20015G25KT
TEMPO 2010/2015 21020G35KT 6000 RA BKN012
PROB40
TEMPO 2011/2014 4000 +RA
BECMG 2013/2016 27020G30KT
PROB40
TEMPO 2015/2018 6000 SHRA BKN014
BECMG 2017/2020 26012KT CAVOK



MET'MAP, your aeronautical weather chart ! - Copyright ORBIFLY December 2007 - Disclaimer

ORBIFLY MET'MAP TEAM :

Programming & Development : Alexandra Zaïnal
Concept & original design : Baudouin d'Aumeries
Assistance for programming : Marc-Olivier Méhu
Technical & hardware support : Manuel Goepfert

Contact : metmap@orbifly.com




SOURCES & CREDITS :

   NOAA